sensor_id;sensor_type;location;lat;lon;timestamp;P1;durP1;ratioP1;P2;durP2;ratioP2
11121;SDS011;5615;49.304;10.576;2023-09-12T00:01:24;20.17;;;14.50;;
11121;SDS011;5615;49.304;10.576;2023-09-12T00:03:51;19.10;;;14.38;;
11121;SDS011;5615;49.304;10.576;2023-09-12T00:06:17;17.33;;;15.52;;
11121;SDS011;5615;49.304;10.576;2023-09-12T00:08:44;19.00;;;15.65;;
11121;SDS011;5615;49.304;10.576;2023-09-12T00:11:11;20.50;;;16.00;;
11121;SDS011;5615;49.304;10.576;2023-09-12T00:13:38;16.30;;;14.65;;
11121;SDS011;5615;49.304;10.576;2023-09-12T00:16:07;17.67;;;15.88;;
11121;SDS011;5615;49.304;10.576;2023-09-12T00:18:34;20.30;;;18.03;;
11121;SDS011;5615;49.304;10.576;2023-09-12T00:21:01;19.05;;;16.77;;
11121;SDS011;5615;49.304;10.576;2023-09-12T00:23:28;19.10;;;17.02;;
11121;SDS011;5615;49.304;10.576;2023-09-12T00:25:56;19.25;;;17.25;;
11121;SDS011;5615;49.304;10.576;2023-09-12T00:28:23;19.97;;;17.63;;
11121;SDS011;5615;49.304;10.576;2023-09-12T00:30:49;19.07;;;17.10;;
11121;SDS011;5615;49.304;10.576;2023-09-12T00:33:18;19.58;;;17.63;;
11121;SDS011;5615;49.304;10.576;2023-09-12T00:35:45;21.47;;;17.97;;
11121;SDS011;5615;49.304;10.576;2023-09-12T00:38:12;19.80;;;17.33;;
11121;SDS011;5615;49.304;10.576;2023-09-12T00:40:38;20.05;;;17.38;;
11121;SDS011;5615;49.304;10.576;2023-09-12T00:43:05;19.90;;;17.67;;
11121;SDS011;5615;49.304;10.576;2023-09-12T00:45:31;18.80;;;17.00;;
11121;SDS011;5615;49.304;10.576;2023-09-12T00:47:58;20.50;;;18.33;;
11121;SDS011;5615;49.304;10.576;2023-09-12T00:50:29;20.60;;;18.40;;
11121;SDS011;5615;49.304;10.576;2023-09-12T00:52:57;19.70;;;17.80;;
11121;SDS011;5615;49.304;10.576;2023-09-12T00:55:25;19.90;;;17.90;;
11121;SDS011;5615;49.304;10.576;2023-09-12T00:57:52;20.50;;;18.50;;
11121;SDS011;5615;49.304;10.576;2023-09-12T01:00:19;21.47;;;19.07;;
11121;SDS011;5615;49.304;10.576;2023-09-12T01:02:46;23.33;;;21.03;;
11121;SDS011;5615;49.304;10.576;2023-09-12T02:02:30;22.93;;;20.73;;
11121;SDS011;5615;49.304;10.576;2023-09-12T02:04:58;22.53;;;20.33;;
11121;SDS011;5615;49.304;10.576;2023-09-12T02:07:33;22.93;;;19.63;;
11121;SDS011;5615;49.304;10.576;2023-09-12T02:10:03;21.60;;;19.53;;
11121;SDS011;5615;49.304;10.576;2023-09-12T02:12:30;22.30;;;20.03;;
11121;SDS011;5615;49.304;10.576;2023-09-12T02:14:57;22.03;;;19.70;;
11121;SDS011;5615;49.304;10.576;2023-09-12T02:17:24;21.43;;;19.13;;
11121;SDS011;5615;49.304;10.576;2023-09-12T02:19:52;21.27;;;19.00;;
11121;SDS011;5615;49.304;10.576;2023-09-12T02:22:18;21.30;;;19.13;;
11121;SDS011;5615;49.304;10.576;2023-09-12T02:24:45;21.27;;;18.57;;
11121;SDS011;5615;49.304;10.576;2023-09-12T02:27:12;21.83;;;19.03;;
11121;SDS011;5615;49.304;10.576;2023-09-12T02:29:38;20.77;;;18.57;;
11121;SDS011;5615;49.304;10.576;2023-09-12T02:32:05;21.03;;;18.83;;
11121;SDS011;5615;49.304;10.576;2023-09-12T02:34:32;20.43;;;18.33;;
11121;SDS011;5615;49.304;10.576;2023-09-12T02:37:00;20.63;;;17.80;;
11121;SDS011;5615;49.304;10.576;2023-09-12T02:39:27;20.00;;;18.07;;
11121;SDS011;5615;49.304;10.576;2023-09-12T02:41:53;25.10;;;18.13;;
11121;SDS011;5615;49.304;10.576;2023-09-12T02:44:20;21.43;;;19.37;;
11121;SDS011;5615;49.304;10.576;2023-09-12T02:46:47;27.47;;;20.03;;
11121;SDS011;5615;49.304;10.576;2023-09-12T02:49:14;22.97;;;20.67;;
11121;SDS011;5615;49.304;10.576;2023-09-12T02:51:41;22.53;;;20.17;;
11121;SDS011;5615;49.304;10.576;2023-09-12T02:54:09;22.10;;;19.73;;
11121;SDS011;5615;49.304;10.576;2023-09-12T02:56:36;21.43;;;19.23;;
11121;SDS011;5615;49.304;10.576;2023-09-12T02:59:02;21.70;;;19.60;;
11121;SDS011;5615;49.304;10.576;2023-09-12T03:01:30;21.97;;;19.67;;
11121;SDS011;5615;49.304;10.576;2023-09-12T03:03:57;22.77;;;19.53;;
11121;SDS011;5615;49.304;10.576;2023-09-12T03:06:24;21.50;;;19.40;;
11121;SDS011;5615;49.304;10.576;2023-09-12T03:08:50;22.40;;;20.00;;
11121;SDS011;5615;49.304;10.576;2023-09-12T03:11:18;23.80;;;20.60;;
11121;SDS011;5615;49.304;10.576;2023-09-12T03:13:45;22.47;;;20.10;;
11121;SDS011;5615;49.304;10.576;2023-09-12T03:16:12;22.30;;;20.20;;
11121;SDS011;5615;49.304;10.576;2023-09-12T03:18:39;24.23;;;20.77;;
11121;SDS011;5615;49.304;10.576;2023-09-12T03:21:06;21.07;;;18.93;;
11121;SDS011;5615;49.304;10.576;2023-09-12T03:23:33;22.47;;;20.17;;
11121;SDS011;5615;49.304;10.576;2023-09-12T03:26:01;22.60;;;19.30;;
11121;SDS011;5615;49.304;10.576;2023-09-12T03:28:30;22.00;;;19.80;;
11121;SDS011;5615;49.304;10.576;2023-09-12T03:31:02;21.80;;;19.53;;
11121;SDS011;5615;49.304;10.576;2023-09-12T03:33:30;21.50;;;19.27;;
11121;SDS011;5615;49.304;10.576;2023-09-12T03:35:56;20.93;;;18.40;;
11121;SDS011;5615;49.304;10.576;2023-09-12T03:38:23;21.00;;;18.90;;
11121;SDS011;5615;49.304;10.576;2023-09-12T03:40:50;21.07;;;18.90;;
11121;SDS011;5615;49.304;10.576;2023-09-12T03:43:16;22.20;;;19.50;;
11121;SDS011;5615;49.304;10.576;2023-09-12T03:45:44;21.70;;;18.27;;
11121;SDS011;5615;49.304;10.576;2023-09-12T03:48:11;22.83;;;18.70;;
11121;SDS011;5615;49.304;10.576;2023-09-12T03:50:38;21.37;;;19.17;;
11121;SDS011;5615;49.304;10.576;2023-09-12T03:53:04;21.40;;;19.17;;
11121;SDS011;5615;49.304;10.576;2023-09-12T03:55:31;20.30;;;18.30;;
11121;SDS011;5615;49.304;10.576;2023-09-12T03:57:58;20.43;;;18.53;;
11121;SDS011;5615;49.304;10.576;2023-09-12T04:00:24;21.30;;;19.10;;
11121;SDS011;5615;49.304;10.576;2023-09-12T04:02:53;21.77;;;19.57;;
11121;SDS011;5615;49.304;10.576;2023-09-12T04:05:20;21.87;;;19.33;;
11121;SDS011;5615;49.304;10.576;2023-09-12T04:07:46;20.20;;;18.13;;
11121;SDS011;5615;49.304;10.576;2023-09-12T04:10:13;21.07;;;18.87;;
11121;SDS011;5615;49.304;10.576;2023-09-12T04:12:39;20.67;;;18.13;;
11121;SDS011;5615;49.304;10.576;2023-09-12T04:15:06;20.50;;;18.30;;
11121;SDS011;5615;49.304;10.576;2023-09-12T04:17:33;19.93;;;17.73;;
11121;SDS011;5615;49.304;10.576;2023-09-12T04:20:01;20.07;;;18.03;;
11121;SDS011;5615;49.304;10.576;2023-09-12T04:22:29;20.53;;;17.90;;
11121;SDS011;5615;49.304;10.576;2023-09-12T04:24:55;20.03;;;17.80;;
11121;SDS011;5615;49.304;10.576;2023-09-12T04:27:22;22.63;;;17.93;;
11121;SDS011;5615;49.304;10.576;2023-09-12T04:29:48;19.73;;;17.53;;
11121;SDS011;5615;49.304;10.576;2023-09-12T04:32:15;19.53;;;17.63;;
11121;SDS011;5615;49.304;10.576;2023-09-12T04:34:48;19.60;;;17.57;;
11121;SDS011;5615;49.304;10.576;2023-09-12T04:37:16;19.47;;;17.37;;
11121;SDS011;5615;49.304;10.576;2023-09-12T04:39:42;18.37;;;16.67;;
11121;SDS011;5615;49.304;10.576;2023-09-12T04:42:09;20.10;;;18.00;;
11121;SDS011;5615;49.304;10.576;2023-09-12T04:44:36;21.37;;;18.97;;
11121;SDS011;5615;49.304;10.576;2023-09-12T04:47:03;20.40;;;18.10;;
11121;SDS011;5615;49.304;10.576;2023-09-12T04:49:30;22.13;;;19.80;;
11121;SDS011;5615;49.304;10.576;2023-09-12T04:51:56;24.63;;;21.03;;
11121;SDS011;5615;49.304;10.576;2023-09-12T04:54:24;23.37;;;20.70;;
11121;SDS011;5615;49.304;10.576;2023-09-12T04:56:51;23.20;;;20.70;;
11121;SDS011;5615;49.304;10.576;2023-09-12T04:59:18;21.17;;;18.97;;
11121;SDS011;5615;49.304;10.576;2023-09-12T05:01:45;21.70;;;19.40;;
11121;SDS011;5615;49.304;10.576;2023-09-12T05:04:12;20.70;;;18.60;;
11121;SDS011;5615;49.304;10.576;2023-09-12T05:06:38;21.20;;;19.10;;
11121;SDS011;5615;49.304;10.576;2023-09-12T05:09:05;20.27;;;18.13;;
11121;SDS011;5615;49.304;10.576;2023-09-12T05:11:35;19.57;;;17.63;;
11121;SDS011;5615;49.304;10.576;2023-09-12T05:14:02;19.43;;;17.37;;
11121;SDS011;5615;49.304;10.576;2023-09-12T05:16:29;20.67;;;17.30;;
11121;SDS011;5615;49.304;10.576;2023-09-12T05:18:56;21.17;;;17.33;;
11121;SDS011;5615;49.304;10.576;2023-09-12T05:21:22;18.97;;;16.97;;
11121;SDS011;5615;49.304;10.576;2023-09-12T05:23:49;19.17;;;17.23;;
11121;SDS011;5615;49.304;10.576;2023-09-12T05:26:16;19.87;;;16.50;;
11121;SDS011;5615;49.304;10.576;2023-09-12T05:28:44;17.83;;;15.90;;
11121;SDS011;5615;49.304;10.576;2023-09-12T05:31:10;18.67;;;16.73;;
11121;SDS011;5615;49.304;10.576;2023-09-12T05:33:37;18.67;;;16.47;;
11121;SDS011;5615;49.304;10.576;2023-09-12T05:36:04;19.77;;;17.07;;
11121;SDS011;5615;49.304;10.576;2023-09-12T05:38:31;19.27;;;17.10;;
11121;SDS011;5615;49.304;10.576;2023-09-12T05:40:57;16.37;;;14.70;;
11121;SDS011;5615;49.304;10.576;2023-09-12T05:43:24;17.87;;;16.00;;
11121;SDS011;5615;49.304;10.576;2023-09-12T05:45:52;17.43;;;15.57;;
11121;SDS011;5615;49.304;10.576;2023-09-12T05:48:19;17.07;;;15.47;;
11121;SDS011;5615;49.304;10.576;2023-09-12T05:50:45;17.70;;;14.73;;
11121;SDS011;5615;49.304;10.576;2023-09-12T05:53:12;16.85;;;14.68;;
11121;SDS011;5615;49.304;10.576;2023-09-12T05:55:39;17.48;;;15.20;;
11121;SDS011;5615;49.304;10.576;2023-09-12T05:58:06;19.60;;;15.00;;
11121;SDS011;5615;49.304;10.576;2023-09-12T06:00:33;16.73;;;15.02;;
11121;SDS011;5615;49.304;10.576;2023-09-12T06:03:01;19.63;;;15.00;;
11121;SDS011;5615;49.304;10.576;2023-09-12T06:05:27;18.92;;;14.45;;
11121;SDS011;5615;49.304;10.576;2023-09-12T06:07:54;16.33;;;14.63;;
11121;SDS011;5615;49.304;10.576;2023-09-12T06:10:21;17.92;;;15.75;;
11121;SDS011;5615;49.304;10.576;2023-09-12T06:12:47;18.77;;;15.82;;
11121;SDS011;5615;49.304;10.576;2023-09-12T06:15:14;17.40;;;15.52;;
11121;SDS011;5615;49.304;10.576;2023-09-12T06:17:41;19.65;;;15.80;;
11121;SDS011;5615;49.304;10.576;2023-09-12T06:20:09;23.15;;;20.67;;
11121;SDS011;5615;49.304;10.576;2023-09-12T06:22:36;16.38;;;14.68;;
11121;SDS011;5615;49.304;10.576;2023-09-12T06:25:03;20.27;;;15.43;;
11121;SDS011;5615;49.304;10.576;2023-09-12T06:27:31;16.90;;;15.10;;
11121;SDS011;5615;49.304;10.576;2023-09-12T06:29:57;17.92;;;15.15;;
11121;SDS011;5615;49.304;10.576;2023-09-12T06:32:24;16.35;;;14.65;;
11121;SDS011;5615;49.304;10.576;2023-09-12T06:34:50;18.55;;;14.63;;
11121;SDS011;5615;49.304;10.576;2023-09-12T06:37:18;17.52;;;15.18;;
11121;SDS011;5615;49.304;10.576;2023-09-12T06:39:48;17.23;;;14.93;;
11121;SDS011;5615;49.304;10.576;2023-09-12T06:42:15;16.45;;;14.77;;
11121;SDS011;5615;49.304;10.576;2023-09-12T06:44:42;20.85;;;15.20;;
11121;SDS011;5615;49.304;10.576;2023-09-12T06:47:08;17.20;;;14.80;;
11121;SDS011;5615;49.304;10.576;2023-09-12T06:49:35;16.42;;;14.65;;
11121;SDS011;5615;49.304;10.576;2023-09-12T06:52:02;17.10;;;15.00;;
11121;SDS011;5615;49.304;10.576;2023-09-12T06:54:31;17.27;;;15.20;;
11121;SDS011;5615;49.304;10.576;2023-09-12T06:56:58;19.75;;;15.10;;
11121;SDS011;5615;49.304;10.576;2023-09-12T06:59:25;22.23;;;14.25;;
11121;SDS011;5615;49.304;10.576;2023-09-12T07:01:51;16.60;;;14.90;;
11121;SDS011;5615;49.304;10.576;2023-09-12T07:04:18;17.80;;;14.65;;
11121;SDS011;5615;49.304;10.576;2023-09-12T07:06:45;18.75;;;13.70;;
11121;SDS011;5615;49.304;10.576;2023-09-12T07:09:11;17.48;;;13.98;;
11121;SDS011;5615;49.304;10.576;2023-09-12T07:11:40;19.00;;;13.68;;
11121;SDS011;5615;49.304;10.576;2023-09-12T07:14:07;18.67;;;14.68;;
11121;SDS011;5615;49.304;10.576;2023-09-12T07:16:35;15.93;;;14.32;;
11121;SDS011;5615;49.304;10.576;2023-09-12T07:19:01;15.35;;;13.80;;
11121;SDS011;5615;49.304;10.576;2023-09-12T07:21:28;18.45;;;14.15;;
11121;SDS011;5615;49.304;10.576;2023-09-12T07:23:55;19.40;;;13.00;;
11121;SDS011;5615;49.304;10.576;2023-09-12T07:26:22;17.67;;;13.63;;
11121;SDS011;5615;49.304;10.576;2023-09-12T07:28:50;21.50;;;17.08;;
11121;SDS011;5615;49.304;10.576;2023-09-12T07:31:16;21.00;;;18.88;;
11121;SDS011;5615;49.304;10.576;2023-09-12T07:33:44;23.83;;;15.73;;
11121;SDS011;5615;49.304;10.576;2023-09-12T07:36:10;18.08;;;16.13;;
11121;SDS011;5615;49.304;10.576;2023-09-12T07:38:37;20.50;;;14.05;;
11121;SDS011;5615;49.304;10.576;2023-09-12T07:41:04;16.55;;;12.50;;
11121;SDS011;5615;49.304;10.576;2023-09-12T07:43:31;16.65;;;11.85;;
11121;SDS011;5615;49.304;10.576;2023-09-12T07:45:59;13.13;;;11.73;;
11121;SDS011;5615;49.304;10.576;2023-09-12T07:48:25;16.25;;;12.15;;
11121;SDS011;5615;49.304;10.576;2023-09-12T07:50:52;16.73;;;12.60;;
11121;SDS011;5615;49.304;10.576;2023-09-12T07:53:20;14.52;;;11.93;;
11121;SDS011;5615;49.304;10.576;2023-09-12T07:55:47;12.70;;;11.35;;
11121;SDS011;5615;49.304;10.576;2023-09-12T07:58:14;17.35;;;11.27;;
11121;SDS011;5615;49.304;10.576;2023-09-12T08:00:43;15.75;;;11.38;;
11121;SDS011;5615;49.304;10.576;2023-09-12T08:03:11;14.38;;;9.60;;
11121;SDS011;5615;49.304;10.576;2023-09-12T08:05:38;15.20;;;11.02;;
11121;SDS011;5615;49.304;10.576;2023-09-12T08:08:05;12.60;;;10.90;;
11121;SDS011;5615;49.304;10.576;2023-09-12T08:10:31;13.32;;;9.38;;
11121;SDS011;5615;49.304;10.576;2023-09-12T08:12:58;20.05;;;10.27;;
11121;SDS011;5615;49.304;10.576;2023-09-12T08:15:25;12.52;;;9.73;;
11121;SDS011;5615;49.304;10.576;2023-09-12T08:17:51;15.90;;;10.50;;
11121;SDS011;5615;49.304;10.576;2023-09-12T08:20:21;13.90;;;9.40;;
11121;SDS011;5615;49.304;10.576;2023-09-12T08:22:47;24.15;;;9.73;;
11121;SDS011;5615;49.304;10.576;2023-09-12T08:25:14;16.38;;;9.77;;
11121;SDS011;5615;49.304;10.576;2023-09-12T08:27:41;11.07;;;8.50;;
11121;SDS011;5615;49.304;10.576;2023-09-12T08:30:09;10.57;;;8.57;;
11121;SDS011;5615;49.304;10.576;2023-09-12T08:32:37;13.35;;;9.05;;
11121;SDS011;5615;49.304;10.576;2023-09-12T08:35:08;11.60;;;8.35;;
11121;SDS011;5615;49.304;10.576;2023-09-12T08:37:36;9.88;;;8.48;;
11121;SDS011;5615;49.304;10.576;2023-09-12T08:40:04;13.32;;;9.23;;
11121;SDS011;5615;49.304;10.576;2023-09-12T08:42:32;10.40;;;9.30;;
11121;SDS011;5615;49.304;10.576;2023-09-12T08:45:05;13.57;;;8.95;;
11121;SDS011;5615;49.304;10.576;2023-09-12T08:47:37;13.10;;;9.05;;
11121;SDS011;5615;49.304;10.576;2023-09-12T08:50:07;12.18;;;8.98;;
11121;SDS011;5615;49.304;10.576;2023-09-12T08:52:37;10.05;;;9.05;;
11121;SDS011;5615;49.304;10.576;2023-09-12T08:55:04;16.52;;;9.18;;
11121;SDS011;5615;49.304;10.576;2023-09-12T08:57:31;11.77;;;10.20;;
11121;SDS011;5615;49.304;10.576;2023-09-12T09:00:00;12.20;;;8.80;;
11121;SDS011;5615;49.304;10.576;2023-09-12T09:02:29;15.57;;;9.52;;
11121;SDS011;5615;49.304;10.576;2023-09-12T09:04:56;16.65;;;9.50;;
11121;SDS011;5615;49.304;10.576;2023-09-12T09:07:24;21.15;;;9.95;;
11121;SDS011;5615;49.304;10.576;2023-09-12T09:09:54;13.10;;;9.48;;
11121;SDS011;5615;49.304;10.576;2023-09-12T09:12:21;13.70;;;9.13;;
11121;SDS011;5615;49.304;10.576;2023-09-12T09:14:48;11.82;;;9.45;;
11121;SDS011;5615;49.304;10.576;2023-09-12T09:17:15;11.82;;;9.38;;
11121;SDS011;5615;49.304;10.576;2023-09-12T09:19:42;13.45;;;9.05;;
11121;SDS011;5615;49.304;10.576;2023-09-12T09:22:10;13.32;;;8.98;;
11121;SDS011;5615;49.304;10.576;2023-09-12T09:24:37;15.45;;;9.88;;
11121;SDS011;5615;49.304;10.576;2023-09-12T09:27:05;15.02;;;10.20;;
11121;SDS011;5615;49.304;10.576;2023-09-12T09:29:32;13.98;;;9.15;;
11121;SDS011;5615;49.304;10.576;2023-09-12T09:32:16;12.27;;;8.90;;
11121;SDS011;5615;49.304;10.576;2023-09-12T09:34:44;15.48;;;9.43;;
11121;SDS011;5615;49.304;10.576;2023-09-12T09:37:11;10.27;;;9.18;;
11121;SDS011;5615;49.304;10.576;2023-09-12T09:39:39;13.85;;;8.73;;
11121;SDS011;5615;49.304;10.576;2023-09-12T09:42:09;10.10;;;9.20;;
11121;SDS011;5615;49.304;10.576;2023-09-12T09:44:37;11.80;;;8.73;;
11121;SDS011;5615;49.304;10.576;2023-09-12T09:47:03;13.00;;;9.52;;
11121;SDS011;5615;49.304;10.576;2023-09-12T09:49:31;12.43;;;9.35;;
11121;SDS011;5615;49.304;10.576;2023-09-12T09:51:59;14.80;;;8.63;;
11121;SDS011;5615;49.304;10.576;2023-09-12T09:54:29;18.23;;;9.50;;
11121;SDS011;5615;49.304;10.576;2023-09-12T09:56:56;12.77;;;8.65;;
11121;SDS011;5615;49.304;10.576;2023-09-12T09:59:25;14.20;;;7.82;;
11121;SDS011;5615;49.304;10.576;2023-09-12T10:01:55;15.10;;;7.85;;
11121;SDS011;5615;49.304;10.576;2023-09-12T10:04:23;13.38;;;8.25;;
11121;SDS011;5615;49.304;10.576;2023-09-12T10:06:52;9.80;;;8.15;;
11121;SDS011;5615;49.304;10.576;2023-09-12T10:09:21;12.15;;;8.23;;
11121;SDS011;5615;49.304;10.576;2023-09-12T10:11:51;9.13;;;7.70;;
11121;SDS011;5615;49.304;10.576;2023-09-12T10:14:19;11.85;;;8.20;;
11121;SDS011;5615;49.304;10.576;2023-09-12T10:16:49;8.85;;;8.02;;
11121;SDS011;5615;49.304;10.576;2023-09-12T10:19:18;8.32;;;7.28;;
11121;SDS011;5615;49.304;10.576;2023-09-12T10:21:46;10.68;;;7.45;;
11121;SDS011;5615;49.304;10.576;2023-09-12T10:24:15;12.35;;;7.88;;
11121;SDS011;5615;49.304;10.576;2023-09-12T10:26:43;12.35;;;8.13;;
11121;SDS011;5615;49.304;10.576;2023-09-12T10:29:10;8.68;;;7.45;;
11121;SDS011;5615;49.304;10.576;2023-09-12T10:31:39;9.27;;;7.82;;
11121;SDS011;5615;49.304;10.576;2023-09-12T10:34:07;11.23;;;8.07;;
11121;SDS011;5615;49.304;10.576;2023-09-12T10:36:38;8.77;;;7.82;;
11121;SDS011;5615;49.304;10.576;2023-09-12T10:39:06;13.02;;;7.85;;
11121;SDS011;5615;49.304;10.576;2023-09-12T10:41:34;10.05;;;7.72;;
11121;SDS011;5615;49.304;10.576;2023-09-12T10:44:02;7.70;;;6.90;;
11121;SDS011;5615;49.304;10.576;2023-09-12T10:46:34;8.55;;;7.65;;
11121;SDS011;5615;49.304;10.576;2023-09-12T10:49:02;10.93;;;7.93;;
11121;SDS011;5615;49.304;10.576;2023-09-12T10:51:33;8.75;;;7.20;;
11121;SDS011;5615;49.304;10.576;2023-09-12T10:54:03;10.65;;;7.72;;
11121;SDS011;5615;49.304;10.576;2023-09-12T10:56:30;9.45;;;7.30;;
11121;SDS011;5615;49.304;10.576;2023-09-12T10:59:10;9.25;;;7.60;;
11121;SDS011;5615;49.304;10.576;2023-09-12T11:01:39;10.20;;;7.50;;
11121;SDS011;5615;49.304;10.576;2023-09-12T11:06:59;10.07;;;8.00;;
11121;SDS011;5615;49.304;10.576;2023-09-12T11:09:26;11.73;;;7.53;;
11121;SDS011;5615;49.304;10.576;2023-09-12T11:11:58;12.55;;;7.47;;
11121;SDS011;5615;49.304;10.576;2023-09-12T11:14:28;9.05;;;7.50;;
11121;SDS011;5615;49.304;10.576;2023-09-12T11:19:47;8.57;;;7.30;;
11121;SDS011;5615;49.304;10.576;2023-09-12T11:22:25;12.77;;;7.63;;
11121;SDS011;5615;49.304;10.576;2023-09-12T11:24:54;10.52;;;7.50;;
11121;SDS011;5615;49.304;10.576;2023-09-12T11:27:22;9.73;;;7.78;;
11121;SDS011;5615;49.304;10.576;2023-09-12T11:29:49;8.43;;;7.68;;
11121;SDS011;5615;49.304;10.576;2023-09-12T11:32:27;8.75;;;7.82;;
11121;SDS011;5615;49.304;10.576;2023-09-12T11:34:56;12.60;;;7.50;;
11121;SDS011;5615;49.304;10.576;2023-09-12T11:37:26;8.55;;;7.72;;
11121;SDS011;5615;49.304;10.576;2023-09-12T11:39:54;8.88;;;7.22;;
11121;SDS011;5615;49.304;10.576;2023-09-12T11:42:22;9.88;;;8.15;;
11121;SDS011;5615;49.304;10.576;2023-09-12T11:44:50;9.35;;;7.68;;
11121;SDS011;5615;49.304;10.576;2023-09-12T11:47:17;9.57;;;6.55;;
11121;SDS011;5615;49.304;10.576;2023-09-12T11:49:45;8.20;;;7.38;;
11121;SDS011;5615;49.304;10.576;2023-09-12T11:52:12;9.05;;;7.18;;
11121;SDS011;5615;49.304;10.576;2023-09-12T11:54:42;10.85;;;7.45;;
11121;SDS011;5615;49.304;10.576;2023-09-12T11:57:11;11.32;;;7.85;;
11121;SDS011;5615;49.304;10.576;2023-09-12T11:59:40;9.15;;;7.35;;
11121;SDS011;5615;49.304;10.576;2023-09-12T12:02:09;10.60;;;7.43;;
11121;SDS011;5615;49.304;10.576;2023-09-12T12:04:36;7.38;;;6.68;;
11121;SDS011;5615;49.304;10.576;2023-09-12T12:07:03;7.68;;;6.72;;
11121;SDS011;5615;49.304;10.576;2023-09-12T12:09:31;13.90;;;7.45;;
11121;SDS011;5615;49.304;10.576;2023-09-12T12:12:04;7.53;;;6.72;;
11121;SDS011;5615;49.304;10.576;2023-09-12T12:14:35;7.88;;;6.60;;
11121;SDS011;5615;49.304;10.576;2023-09-12T12:17:05;7.53;;;6.85;;
11121;SDS011;5615;49.304;10.576;2023-09-12T12:19:33;9.65;;;7.03;;
11121;SDS011;5615;49.304;10.576;2023-09-12T12:22:01;8.07;;;7.10;;
11121;SDS011;5615;49.304;10.576;2023-09-12T12:24:35;8.73;;;6.70;;
11121;SDS011;5615;49.304;10.576;2023-09-12T12:27:05;6.85;;;6.10;;
11121;SDS011;5615;49.304;10.576;2023-09-12T12:29:33;8.60;;;6.30;;
11121;SDS011;5615;49.304;10.576;2023-09-12T12:32:00;8.07;;;6.35;;
11121;SDS011;5615;49.304;10.576;2023-09-12T12:34:26;8.57;;;7.43;;
11121;SDS011;5615;49.304;10.576;2023-09-12T12:36:53;12.35;;;6.10;;
11121;SDS011;5615;49.304;10.576;2023-09-12T12:39:20;7.50;;;6.70;;
11121;SDS011;5615;49.304;10.576;2023-09-12T12:41:47;7.32;;;6.38;;
11121;SDS011;5615;49.304;10.576;2023-09-12T12:44:15;8.88;;;5.93;;
11121;SDS011;5615;49.304;10.576;2023-09-12T12:46:49;9.20;;;6.15;;
11121;SDS011;5615;49.304;10.576;2023-09-12T12:49:17;8.32;;;6.05;;
11121;SDS011;5615;49.304;10.576;2023-09-12T12:51:44;11.57;;;6.30;;
11121;SDS011;5615;49.304;10.576;2023-09-12T12:54:11;11.05;;;6.10;;
11121;SDS011;5615;49.304;10.576;2023-09-12T12:56:38;7.68;;;6.20;;
11121;SDS011;5615;49.304;10.576;2023-09-12T12:59:05;7.22;;;6.30;;
11121;SDS011;5615;49.304;10.576;2023-09-12T13:01:35;6.50;;;5.90;;
11121;SDS011;5615;49.304;10.576;2023-09-12T13:04:04;7.70;;;6.20;;
11121;SDS011;5615;49.304;10.576;2023-09-12T13:06:32;11.05;;;6.40;;
11121;SDS011;5615;49.304;10.576;2023-09-12T13:09:00;7.65;;;5.85;;
11121;SDS011;5615;49.304;10.576;2023-09-12T13:11:30;7.40;;;6.40;;
11121;SDS011;5615;49.304;10.576;2023-09-12T13:13:57;7.57;;;6.70;;
11121;SDS011;5615;49.304;10.576;2023-09-12T13:16:23;7.53;;;6.57;;
11121;SDS011;5615;49.304;10.576;2023-09-12T13:18:52;8.27;;;6.70;;
11121;SDS011;5615;49.304;10.576;2023-09-12T13:21:18;7.80;;;6.30;;
11121;SDS011;5615;49.304;10.576;2023-09-12T13:23:45;8.15;;;6.40;;
11121;SDS011;5615;49.304;10.576;2023-09-12T13:26:11;7.88;;;6.32;;
11121;SDS011;5615;49.304;10.576;2023-09-12T13:28:38;7.20;;;6.10;;
11121;SDS011;5615;49.304;10.576;2023-09-12T13:31:05;11.13;;;6.43;;
11121;SDS011;5615;49.304;10.576;2023-09-12T13:33:33;8.27;;;6.38;;
11121;SDS011;5615;49.304;10.576;2023-09-12T13:36:01;7.68;;;6.50;;
11121;SDS011;5615;49.304;10.576;2023-09-12T13:38:28;6.88;;;6.20;;
11121;SDS011;5615;49.304;10.576;2023-09-12T13:40:55;10.77;;;7.03;;
11121;SDS011;5615;49.304;10.576;2023-09-12T13:43:21;7.00;;;6.20;;
11121;SDS011;5615;49.304;10.576;2023-09-12T13:45:48;10.43;;;7.20;;
11121;SDS011;5615;49.304;10.576;2023-09-12T13:48:15;7.65;;;6.90;;
11121;SDS011;5615;49.304;10.576;2023-09-12T13:50:42;11.00;;;6.32;;
11121;SDS011;5615;49.304;10.576;2023-09-12T13:53:10;9.00;;;6.75;;
11121;SDS011;5615;49.304;10.576;2023-09-12T13:55:37;7.38;;;6.65;;
11121;SDS011;5615;49.304;10.576;2023-09-12T13:58:04;9.45;;;7.20;;
11121;SDS011;5615;49.304;10.576;2023-09-12T14:00:33;10.82;;;6.40;;
11121;SDS011;5615;49.304;10.576;2023-09-12T14:03:00;9.63;;;6.72;;
11121;SDS011;5615;49.304;10.576;2023-09-12T14:05:28;10.75;;;6.30;;
11121;SDS011;5615;49.304;10.576;2023-09-12T14:07:54;8.90;;;6.05;;
11121;SDS011;5615;49.304;10.576;2023-09-12T14:10:22;7.70;;;6.18;;
11121;SDS011;5615;49.304;10.576;2023-09-12T14:12:49;7.60;;;6.70;;
11121;SDS011;5615;49.304;10.576;2023-09-12T14:15:15;8.55;;;6.35;;
11121;SDS011;5615;49.304;10.576;2023-09-12T14:17:42;13.90;;;6.45;;
11121;SDS011;5615;49.304;10.576;2023-09-12T14:20:09;10.25;;;6.30;;
11121;SDS011;5615;49.304;10.576;2023-09-12T14:22:40;8.68;;;6.18;;
11121;SDS011;5615;49.304;10.576;2023-09-12T14:25:07;9.07;;;6.10;;
11121;SDS011;5615;49.304;10.576;2023-09-12T14:27:35;11.27;;;6.90;;
11121;SDS011;5615;49.304;10.576;2023-09-12T14:30:02;11.48;;;6.88;;
11121;SDS011;5615;49.304;10.576;2023-09-12T14:32:29;7.63;;;6.43;;
11121;SDS011;5615;49.304;10.576;2023-09-12T14:34:56;10.80;;;6.63;;
11121;SDS011;5615;49.304;10.576;2023-09-12T14:37:23;8.50;;;5.97;;
11121;SDS011;5615;49.304;10.576;2023-09-12T14:39:52;11.68;;;6.90;;
11121;SDS011;5615;49.304;10.576;2023-09-12T14:42:20;9.13;;;6.80;;
11121;SDS011;5615;49.304;10.576;2023-09-12T14:44:48;7.20;;;5.95;;
11121;SDS011;5615;49.304;10.576;2023-09-12T14:47:15;9.02;;;6.10;;
11121;SDS011;5615;49.304;10.576;2023-09-12T14:49:41;7.40;;;6.60;;
11121;SDS011;5615;49.304;10.576;2023-09-12T14:52:08;11.57;;;6.63;;
11121;SDS011;5615;49.304;10.576;2023-09-12T14:54:35;9.27;;;7.10;;
11121;SDS011;5615;49.304;10.576;2023-09-12T14:57:01;13.35;;;7.07;;
11121;SDS011;5615;49.304;10.576;2023-09-12T14:59:28;7.50;;;6.80;;
11121;SDS011;5615;49.304;10.576;2023-09-12T15:01:56;8.50;;;6.78;;
11121;SDS011;5615;49.304;10.576;2023-09-12T15:04:23;7.53;;;6.82;;
11121;SDS011;5615;49.304;10.576;2023-09-12T15:06:49;12.77;;;6.97;;
11121;SDS011;5615;49.304;10.576;2023-09-12T15:09:16;8.23;;;7.13;;
11121;SDS011;5615;49.304;10.576;2023-09-12T15:11:43;8.00;;;7.10;;
11121;SDS011;5615;49.304;10.576;2023-09-12T15:14:09;13.10;;;6.72;;
11121;SDS011;5615;49.304;10.576;2023-09-12T15:16:36;9.77;;;7.07;;
11121;SDS011;5615;49.304;10.576;2023-09-12T15:19:04;9.27;;;7.13;;
11121;SDS011;5615;49.304;10.576;2023-09-12T15:21:31;12.45;;;7.88;;
11121;SDS011;5615;49.304;10.576;2023-09-12T15:23:57;7.63;;;6.90;;
11121;SDS011;5615;49.304;10.576;2023-09-12T15:26:24;12.85;;;7.03;;
11121;SDS011;5615;49.304;10.576;2023-09-12T15:28:51;9.05;;;6.78;;
11121;SDS011;5615;49.304;10.576;2023-09-12T15:31:17;8.82;;;6.75;;
11121;SDS011;5615;49.304;10.576;2023-09-12T15:33:44;9.93;;;6.35;;
11121;SDS011;5615;49.304;10.576;2023-09-12T15:36:12;12.15;;;6.93;;